Aktuální stav
Misty
Conditions



Tlak
1015.92 (hPa) - 30 (inHG)
Viditelnost

2.2 (km) - 1.4 (míle)
   Teplota
2  °C
36°F
2  °C
Rosný bod
100  %
 Vlhkost
   Rychlost větru
2.2  m/s
5  mph
8  km/h
4  kts
   Směr větru
 20°
Severo severo
východ
   Leťiště
LKLN
Location Plzeň-Líně Airport 36 km (22.37 mi)
Metar :LKLN 040700Z AUTO 02004KT 330V080 2200 BR OVC002 02/02 Q1016
Sun 4th December 08:00 am